createdAt,value
2023-03-30T00:00:25.199Z,26.98
2023-03-30T00:02:55.836Z,26.91
2023-03-30T00:05:27.534Z,27.61
2023-03-30T00:07:58.068Z,27.45
2023-03-30T00:10:28.832Z,27.07
2023-03-30T00:13:04.975Z,28.60
2023-03-30T00:15:38.476Z,28.46
2023-03-30T00:18:09.537Z,27.89
2023-03-30T00:20:44.873Z,27.36
2023-03-30T00:23:41.808Z,27.94
2023-03-30T00:27:00.145Z,27.96
2023-03-30T00:29:51.920Z,28.37
2023-03-30T00:32:22.589Z,27.79
2023-03-30T00:34:55.823Z,28.16
2023-03-30T00:37:27.345Z,27.79
2023-03-30T00:39:58.236Z,27.98
2023-03-30T00:42:29.238Z,27.83
2023-03-30T00:45:23.531Z,28.07
2023-03-30T00:48:16.906Z,27.58
2023-03-30T00:51:20.478Z,28.17
2023-03-30T00:54:24.394Z,27.87
2023-03-30T00:58:29.138Z,27.90
2023-03-30T01:04:37.078Z,27.40
2023-03-30T01:07:15.082Z,27.25
2023-03-30T01:09:52.759Z,26.96
2023-03-30T01:12:41.657Z,27.06
2023-03-30T01:15:16.885Z,26.89
2023-03-30T01:17:55.435Z,26.32
2023-03-30T01:20:46.889Z,26.54
2023-03-30T01:23:20.206Z,26.46
2023-03-30T01:26:10.168Z,26.68
2023-03-30T01:28:46.444Z,27.22
2023-03-30T01:31:27.577Z,26.33
2023-03-30T01:34:23.032Z,26.40
2023-03-30T01:37:21.117Z,26.54
2023-03-30T01:39:57.570Z,26.37
2023-03-30T01:42:43.545Z,26.33
2023-03-30T01:45:28.103Z,26.38
2023-03-30T01:48:15.718Z,26.94
2023-03-30T01:51:20.204Z,27.28
2023-03-30T02:09:29.777Z,27.14
2023-03-30T02:12:02.765Z,26.81
2023-03-30T02:14:35.933Z,26.86
2023-03-30T02:17:15.341Z,26.30
2023-03-30T02:19:48.115Z,26.56
2023-03-30T02:22:21.137Z,26.59
2023-03-30T02:24:55.191Z,27.01
2023-03-30T02:27:27.790Z,26.70
2023-03-30T02:29:58.278Z,26.74
2023-03-30T02:32:35.710Z,26.45
2023-03-30T02:35:17.548Z,26.59
2023-03-30T02:38:26.162Z,26.86
2023-03-30T02:41:19.944Z,26.70
2023-03-30T02:44:08.235Z,26.51
2023-03-30T02:47:00.808Z,26.71
2023-03-30T02:49:53.638Z,26.60
2023-03-30T02:52:53.960Z,26.49
2023-03-30T02:55:47.588Z,26.62
2023-03-30T02:58:51.652Z,26.54
2023-03-30T03:01:36.253Z,26.67
2023-03-30T03:04:19.324Z,26.34
2023-03-30T03:07:06.213Z,26.76
2023-03-30T03:09:38.322Z,26.43
2023-03-30T03:12:09.230Z,26.67
2023-03-30T03:14:41.687Z,26.57
2023-03-30T03:17:12.246Z,26.45
2023-03-30T03:19:47.124Z,26.15
2023-03-30T03:22:19.694Z,26.38
2023-03-30T03:24:50.597Z,26.07
2023-03-30T03:27:41.271Z,26.74
2023-03-30T03:30:20.404Z,26.43
2023-03-30T03:33:02.443Z,26.45
2023-03-30T03:35:34.631Z,26.48
2023-03-30T03:38:09.384Z,26.73
2023-03-30T03:40:40.328Z,26.41
2023-03-30T03:43:10.873Z,26.16
2023-03-30T03:45:41.205Z,26.49
2023-03-30T03:48:11.679Z,26.04
2023-03-30T03:50:55.423Z,26.34
2023-03-30T03:53:29.137Z,26.83
2023-03-30T03:56:06.798Z,26.00
2023-03-30T03:58:37.893Z,26.07
2023-03-30T04:01:09.780Z,26.26
2023-03-30T04:03:43.378Z,26.06
2023-03-30T04:06:14.011Z,26.13
2023-03-30T04:08:45.651Z,25.75
2023-03-30T04:11:28.200Z,25.87
2023-03-30T04:14:22.664Z,26.07
2023-03-30T04:17:09.851Z,25.87
2023-03-30T04:20:00.659Z,25.85
2023-03-30T04:22:51.678Z,25.76
2023-03-30T04:25:48.299Z,25.86
2023-03-30T04:28:41.772Z,25.72
2023-03-30T04:31:36.325Z,25.82
2023-03-30T04:34:28.267Z,25.68
2023-03-30T04:37:25.568Z,26.21
2023-03-30T04:40:29.489Z,26.01
2023-03-30T04:43:28.891Z,25.77
2023-03-30T04:46:24.723Z,25.86
2023-03-30T04:49:17.970Z,26.81
2023-03-30T04:52:21.358Z,26.13
2023-03-30T04:55:02.519Z,27.67
2023-03-30T04:57:33.163Z,28.01
2023-03-30T05:00:16.302Z,27.53
2023-03-30T05:03:15.786Z,27.88
2023-03-30T05:05:58.625Z,28.42
2023-03-30T05:08:45.427Z,28.34
2023-03-30T05:11:34.023Z,28.39
2023-03-30T05:14:23.442Z,28.44
2023-03-30T05:17:12.189Z,29.03
2023-03-30T05:19:58.050Z,29.15
2023-03-30T05:22:57.906Z,29.16
2023-03-30T05:25:56.584Z,28.71
2023-03-30T05:28:46.288Z,29.15
2023-03-30T05:31:38.993Z,29.32
2023-03-30T05:34:22.107Z,29.37
2023-03-30T05:36:58.101Z,29.27
2023-03-30T05:39:38.519Z,29.97
2023-03-30T05:42:31.503Z,29.57
2023-03-30T05:45:10.936Z,29.61
2023-03-30T05:47:59.405Z,28.87
2023-03-30T05:51:05.023Z,29.34
2023-03-30T05:53:55.671Z,29.76
2023-03-30T05:56:54.889Z,29.14
2023-03-30T05:59:39.860Z,28.90
2023-03-30T06:02:28.871Z,28.48
2023-03-30T06:05:05.879Z,28.60
2023-03-30T06:07:36.392Z,28.45
2023-03-30T06:10:08.991Z,28.00
2023-03-30T06:12:40.971Z,27.79
2023-03-30T06:15:22.339Z,27.46
2023-03-30T06:17:57.799Z,26.67
2023-03-30T06:20:28.415Z,26.41
2023-03-30T06:23:00.387Z,26.42
2023-03-30T06:25:31.680Z,26.31
2023-03-30T06:28:02.698Z,26.51
2023-03-30T06:30:33.923Z,26.66
2023-03-30T06:33:07.293Z,26.29
2023-03-30T06:35:54.100Z,27.31
2023-03-30T06:38:26.579Z,27.05
2023-03-30T06:40:58.797Z,26.84
2023-03-30T06:43:31.122Z,27.54
2023-03-30T06:46:13.852Z,27.13
2023-03-30T06:48:48.439Z,27.21
2023-03-30T06:51:40.022Z,27.12
2023-03-30T06:54:11.065Z,27.03
2023-03-30T06:56:51.923Z,27.31
2023-03-30T06:59:22.493Z,27.07
2023-03-30T07:02:18.571Z,27.11
2023-03-30T07:05:17.149Z,27.15
2023-03-30T07:08:13.406Z,27.01
2023-03-30T07:10:51.051Z,26.80
2023-03-30T07:13:23.612Z,26.97
2023-03-30T07:15:55.844Z,26.90
2023-03-30T07:18:26.510Z,26.94
2023-03-30T07:20:59.175Z,27.25
2023-03-30T07:23:35.650Z,26.75
2023-03-30T07:26:06.172Z,27.04
2023-03-30T07:28:47.139Z,27.20
2023-03-30T07:31:18.795Z,26.89
2023-03-30T07:33:52.263Z,26.60
2023-03-30T07:36:27.447Z,26.95
2023-03-30T07:38:59.987Z,26.83
2023-03-30T07:41:32.590Z,27.17
2023-03-30T07:44:04.419Z,26.80
2023-03-30T07:46:34.958Z,26.86
2023-03-30T07:49:06.621Z,26.81
2023-03-30T07:51:37.068Z,26.78
2023-03-30T07:54:17.054Z,26.97
2023-03-30T07:57:00.801Z,27.05
2023-03-30T07:59:31.338Z,27.42
2023-03-30T08:02:15.870Z,26.72
2023-03-30T08:04:54.529Z,27.02
2023-03-30T08:07:36.728Z,27.03
2023-03-30T08:10:15.964Z,26.92
2023-03-30T08:12:46.690Z,27.13
2023-03-30T08:15:17.258Z,26.69
2023-03-30T08:17:47.729Z,26.94
2023-03-30T08:20:19.089Z,26.54
2023-03-30T08:22:50.379Z,26.40
2023-03-30T08:25:21.170Z,26.47
2023-03-30T08:27:51.608Z,26.85
2023-03-30T08:30:22.144Z,26.63
2023-03-30T08:32:53.535Z,26.37
2023-03-30T08:35:25.107Z,26.67
2023-03-30T08:37:56.167Z,26.92
2023-03-30T08:40:27.110Z,26.87
2023-03-30T08:43:40.880Z,26.83
2023-03-30T08:46:18.002Z,26.98
2023-03-30T08:48:50.217Z,27.15
2023-03-30T08:51:31.953Z,26.65
2023-03-30T08:54:04.074Z,26.95
2023-03-30T08:56:56.480Z,27.25
2023-03-30T08:59:39.248Z,27.13
2023-03-30T09:02:28.762Z,27.08
2023-03-30T09:05:06.227Z,26.69
2023-03-30T09:07:52.186Z,26.78
2023-03-30T09:10:25.082Z,26.62
2023-03-30T09:13:00.020Z,26.86
2023-03-30T09:15:44.714Z,26.84
2023-03-30T09:18:43.906Z,26.70
2023-03-30T09:21:16.210Z,27.09
2023-03-30T09:23:46.603Z,26.75
2023-03-30T09:26:29.985Z,26.99
2023-03-30T09:29:11.281Z,27.23
2023-03-30T09:31:51.008Z,27.30
2023-03-30T09:34:38.075Z,26.50
2023-03-30T09:37:13.436Z,25.74
2023-03-30T09:39:43.830Z,26.51
2023-03-30T09:42:14.357Z,26.50
2023-03-30T09:45:03.581Z,26.25
2023-03-30T09:47:38.308Z,26.11
2023-03-30T09:50:18.801Z,26.20
2023-03-30T09:53:08.722Z,26.16
2023-03-30T09:55:40.299Z,26.45
2023-03-30T09:58:33.302Z,26.72
2023-03-30T10:01:18.355Z,26.52
2023-03-30T10:04:11.894Z,26.41
2023-03-30T10:06:49.878Z,26.83
2023-03-30T10:09:25.508Z,26.15
2023-03-30T10:11:57.891Z,26.45
2023-03-30T10:14:38.477Z,26.63
2023-03-30T10:17:09.661Z,26.83
2023-03-30T10:19:48.568Z,26.66
2023-03-30T10:22:27.305Z,26.62
2023-03-30T10:24:58.788Z,26.92
2023-03-30T10:27:36.440Z,26.34
2023-03-30T10:30:19.716Z,26.90
2023-03-30T10:32:50.249Z,26.82
2023-03-30T10:35:29.565Z,27.03
2023-03-30T10:38:00.381Z,27.04
2023-03-30T10:40:43.608Z,26.66
2023-03-30T10:43:24.109Z,26.52
2023-03-30T10:46:03.731Z,27.13
2023-03-30T10:48:54.336Z,26.87
2023-03-30T10:51:39.850Z,27.21
2023-03-30T10:54:24.543Z,26.99
2023-03-30T10:57:02.617Z,27.63
2023-03-30T10:59:42.411Z,27.39
2023-03-30T11:02:19.089Z,27.29
2023-03-30T11:04:58.038Z,27.50
2023-03-30T11:07:37.780Z,27.13
2023-03-30T11:10:49.260Z,27.73
2023-03-30T11:13:22.167Z,27.15
2023-03-30T11:16:07.996Z,27.36
2023-03-30T11:18:50.289Z,27.30
2023-03-30T11:21:30.865Z,27.52
2023-03-30T11:24:29.201Z,27.66
2023-03-30T11:27:07.289Z,27.71
2023-03-30T11:29:40.787Z,27.45
2023-03-30T11:32:20.227Z,28.13
2023-03-30T11:34:51.019Z,27.50
2023-03-30T11:37:47.602Z,27.41
2023-03-30T11:40:26.940Z,27.82
2023-03-30T11:42:58.006Z,27.64
2023-03-30T11:45:45.164Z,27.38
2023-03-30T11:48:42.845Z,27.57
2023-03-30T11:51:48.348Z,28.10
2023-03-30T11:54:56.106Z,28.02
2023-03-30T11:57:39.009Z,27.94
2023-03-30T12:00:28.305Z,28.41
2023-03-30T12:03:17.551Z,28.02
2023-03-30T12:06:21.928Z,28.57
2023-03-30T12:09:21.204Z,27.80
2023-03-30T12:11:54.802Z,27.78
2023-03-30T12:15:01.506Z,27.74
2023-03-30T12:17:56.526Z,28.38
2023-03-30T12:20:32.748Z,27.45
2023-03-30T12:23:06.886Z,27.63
2023-03-30T12:26:11.623Z,27.93
2023-03-30T12:29:20.852Z,27.22
2023-03-30T12:32:04.804Z,27.63
2023-03-30T12:34:42.805Z,27.72
2023-03-30T12:37:28.000Z,27.72
2023-03-30T12:40:10.723Z,27.07
2023-03-30T12:42:48.309Z,27.63
2023-03-30T12:45:25.622Z,27.44
2023-03-30T12:48:10.402Z,27.29
2023-03-30T12:51:15.629Z,27.97
2023-03-30T12:54:12.609Z,27.97
2023-03-30T12:56:43.426Z,27.35
2023-03-30T12:59:37.082Z,27.12
2023-03-30T13:02:27.331Z,27.82
2023-03-30T13:05:01.354Z,27.89
2023-03-30T13:07:37.821Z,27.71
2023-03-30T13:10:35.120Z,27.39
2023-03-30T13:13:17.874Z,27.87
2023-03-30T13:15:59.500Z,27.67
2023-03-30T13:18:38.063Z,28.03
2023-03-30T13:21:20.727Z,28.43
2023-03-30T13:24:27.719Z,27.34
2023-03-30T13:27:12.767Z,28.11
2023-03-30T13:29:44.548Z,27.89
2023-03-30T13:32:28.154Z,28.20
2023-03-30T13:35:34.665Z,28.13
2023-03-30T13:38:16.041Z,27.65
2023-03-30T13:41:39.743Z,27.45
2023-03-30T13:44:51.189Z,27.67
2023-03-30T13:47:35.077Z,27.53
2023-03-30T13:50:29.501Z,27.81
2023-03-30T13:53:10.887Z,28.17
2023-03-30T13:55:46.279Z,28.06
2023-03-30T13:58:47.709Z,27.54
2023-03-30T14:01:27.032Z,28.45
2023-03-30T14:04:04.086Z,27.67
2023-03-30T14:06:45.038Z,27.12
2023-03-30T14:09:26.050Z,27.54
2023-03-30T14:12:04.141Z,28.16
2023-03-30T14:14:42.282Z,28.20
2023-03-30T14:17:25.645Z,27.25
2023-03-30T14:20:08.519Z,28.70
2023-03-30T14:22:49.292Z,27.63
2023-03-30T14:25:32.193Z,27.52
2023-03-30T14:28:31.958Z,27.65
2023-03-30T14:31:08.278Z,27.60
2023-03-30T14:33:47.504Z,28.13
2023-03-30T14:36:22.948Z,27.80
2023-03-30T14:38:59.178Z,27.73
2023-03-30T14:41:36.037Z,27.98
2023-03-30T14:44:12.367Z,28.43
2023-03-30T14:46:53.706Z,27.56
2023-03-30T14:49:38.322Z,28.19
2023-03-30T14:52:18.021Z,28.90
2023-03-30T14:55:05.087Z,27.97
2023-03-30T14:57:43.348Z,27.88
2023-03-30T15:00:24.073Z,27.93
2023-03-30T15:03:19.690Z,28.92
2023-03-30T15:05:57.595Z,28.48
2023-03-30T15:08:34.760Z,28.43
2023-03-30T15:11:15.600Z,28.25
2023-03-30T15:14:05.373Z,28.37
2023-03-30T15:16:42.845Z,27.88
2023-03-30T15:19:29.985Z,28.07
2023-03-30T15:22:34.041Z,27.73
2023-03-30T15:25:11.703Z,28.15
2023-03-30T15:27:51.096Z,28.70
2023-03-30T15:30:37.949Z,27.80
2023-03-30T15:33:33.963Z,28.59
2023-03-30T15:36:33.505Z,27.75
2023-03-30T15:39:13.480Z,27.90
2023-03-30T15:41:50.879Z,28.11
2023-03-30T15:44:28.830Z,28.89
2023-03-30T15:47:19.944Z,28.70
2023-03-30T15:49:53.672Z,29.17
2023-03-30T15:52:42.750Z,29.23
2023-03-30T15:55:34.146Z,28.28
2023-03-30T15:58:08.408Z,28.34
2023-03-30T16:00:43.521Z,28.60
2023-03-30T16:03:18.034Z,28.42
2023-03-30T16:05:51.229Z,28.72
2023-03-30T16:08:28.689Z,29.00
2023-03-30T16:11:04.507Z,27.99
2023-03-30T16:13:41.509Z,28.11
2023-03-30T16:16:15.436Z,28.36
2023-03-30T16:18:48.178Z,28.65
2023-03-30T16:21:20.350Z,28.38
2023-03-30T16:23:57.019Z,28.15
2023-03-30T16:26:29.864Z,28.22
2023-03-30T16:29:04.528Z,28.44
2023-03-30T16:31:37.830Z,28.15
2023-03-30T16:34:09.393Z,29.30
2023-03-30T16:36:42.014Z,28.83
2023-03-30T16:39:37.133Z,28.32
2023-03-30T16:42:09.896Z,29.04
2023-03-30T16:44:43.353Z,29.36
2023-03-30T16:47:16.231Z,28.40
2023-03-30T16:49:50.183Z,29.10
2023-03-30T16:52:20.565Z,29.34
2023-03-30T16:54:55.192Z,28.41
2023-03-30T16:57:28.705Z,29.05
2023-03-30T16:59:59.487Z,29.13
2023-03-30T17:02:34.346Z,28.51
2023-03-30T17:05:06.918Z,28.56
2023-03-30T17:07:38.377Z,29.27
2023-03-30T17:10:30.832Z,28.36
2023-03-30T17:13:03.281Z,28.17
2023-03-30T17:15:37.150Z,28.64
2023-03-30T17:18:14.288Z,28.63
2023-03-30T17:20:55.767Z,29.69
2023-03-30T17:23:29.425Z,28.88
2023-03-30T17:26:01.205Z,28.38
2023-03-30T17:28:35.252Z,29.60
2023-03-30T17:31:11.150Z,28.42
2023-03-30T17:33:42.518Z,28.45
2023-03-30T17:36:23.387Z,28.68
2023-03-30T17:38:54.174Z,29.57
2023-03-30T17:41:24.866Z,28.40
2023-03-30T17:43:55.492Z,29.33
2023-03-30T17:46:26.066Z,29.35
2023-03-30T17:48:56.549Z,29.67
2023-03-30T17:51:27.465Z,29.39
2023-03-30T17:53:58.137Z,28.27
2023-03-30T17:56:29.693Z,28.60
2023-03-30T17:59:00.315Z,29.48
2023-03-30T18:01:32.931Z,29.43
2023-03-30T18:04:05.495Z,29.47
2023-03-30T18:06:36.206Z,28.71
2023-03-30T18:09:09.093Z,28.92
2023-03-30T18:11:40.047Z,28.91
2023-03-30T18:14:10.553Z,28.83
2023-03-30T18:16:44.379Z,28.88
2023-03-30T18:19:15.426Z,29.66
2023-03-30T18:21:45.885Z,28.60
2023-03-30T18:24:16.930Z,28.82
2023-03-30T18:26:48.017Z,29.57
2023-03-30T18:29:21.653Z,29.78
2023-03-30T18:31:51.812Z,28.66
2023-03-30T18:34:22.084Z,28.66
2023-03-30T18:36:52.436Z,29.82
2023-03-30T18:39:23.480Z,29.54
2023-03-30T18:41:53.948Z,28.58
2023-03-30T18:44:26.376Z,29.70
2023-03-30T18:46:56.827Z,29.61
2023-03-30T18:49:27.378Z,28.49
2023-03-30T18:51:58.647Z,28.61
2023-03-30T18:54:29.355Z,29.24
2023-03-30T18:57:01.936Z,29.70
2023-03-30T18:59:32.380Z,28.49
2023-03-30T19:02:02.749Z,28.79
2023-03-30T19:04:33.083Z,28.52
2023-03-30T19:07:03.453Z,28.76
2023-03-30T19:09:43.023Z,28.72
2023-03-30T19:12:16.236Z,28.89
2023-03-30T19:14:46.601Z,28.83
2023-03-30T19:17:17.514Z,29.00
2023-03-30T19:19:47.962Z,28.71
2023-03-30T19:22:18.373Z,29.43
2023-03-30T19:24:48.828Z,29.53
2023-03-30T19:27:19.261Z,28.92
2023-03-30T19:29:50.457Z,29.96
2023-03-30T19:32:21.225Z,29.86
2023-03-30T19:34:51.881Z,28.84
2023-03-30T19:37:23.141Z,29.87
2023-03-30T19:39:54.420Z,29.09
2023-03-30T19:42:24.957Z,29.87
2023-03-30T19:44:55.805Z,30.11
2023-03-30T19:47:26.380Z,29.56
2023-03-30T19:49:57.626Z,29.13
2023-03-30T19:52:28.172Z,28.75
2023-03-30T19:54:59.609Z,28.72
2023-03-30T19:57:30.348Z,30.11
2023-03-30T20:00:00.916Z,28.80
2023-03-30T20:02:34.406Z,29.73
2023-03-30T20:05:05.894Z,29.19
2023-03-30T20:07:36.798Z,30.35
2023-03-30T20:10:09.213Z,29.16
2023-03-30T20:12:40.461Z,29.50
2023-03-30T20:15:11.528Z,29.17
2023-03-30T20:17:42.250Z,29.45
2023-03-30T20:20:18.324Z,30.08
2023-03-30T20:22:48.864Z,29.90
2023-03-30T20:25:19.430Z,29.04
2023-03-30T20:27:49.916Z,29.80
2023-03-30T20:30:20.926Z,30.10
2023-03-30T20:33:06.947Z,29.24
2023-03-30T20:35:39.689Z,29.47
2023-03-30T20:38:10.269Z,29.54
2023-03-30T20:40:40.683Z,29.10
2023-03-30T20:43:12.084Z,29.26
2023-03-30T20:45:49.968Z,29.95
2023-03-30T20:48:31.768Z,30.32
2023-03-30T20:51:03.817Z,29.23
2023-03-30T20:53:36.284Z,29.35
2023-03-30T20:56:11.858Z,29.14
2023-03-30T20:58:43.074Z,30.00
2023-03-30T21:01:26.736Z,29.62
2023-03-30T21:03:59.486Z,29.58
2023-03-30T21:06:32.617Z,30.41
2023-03-30T21:09:06.793Z,30.68
2023-03-30T21:11:40.484Z,29.91
2023-03-30T21:14:14.526Z,30.07
2023-03-30T21:16:45.282Z,29.57
2023-03-30T21:19:16.490Z,30.43
2023-03-30T21:21:47.004Z,30.08
2023-03-30T21:24:18.418Z,29.63
2023-03-30T21:26:48.788Z,30.42
2023-03-30T21:29:19.358Z,29.65
2023-03-30T21:31:49.746Z,29.49
2023-03-30T21:34:21.707Z,29.59
2023-03-30T21:36:53.700Z,30.85
2023-03-30T21:39:25.287Z,30.58
2023-03-30T21:41:55.744Z,30.15
2023-03-30T21:44:27.144Z,29.80
2023-03-30T21:46:57.570Z,30.41
2023-03-30T21:49:28.531Z,29.65
2023-03-30T21:51:58.917Z,29.47
2023-03-30T21:54:29.406Z,29.82
2023-03-30T21:56:59.762Z,30.01
2023-03-30T21:59:30.155Z,29.80
2023-03-30T22:02:00.786Z,29.91
2023-03-30T22:04:31.305Z,29.94
2023-03-30T22:07:01.690Z,30.63
2023-03-30T22:09:32.255Z,30.93
2023-03-30T22:12:02.711Z,29.83
2023-03-30T22:14:33.491Z,30.13
2023-03-30T22:17:03.885Z,30.32
2023-03-30T22:19:35.904Z,30.15
2023-03-30T22:22:07.028Z,30.34
2023-03-30T22:24:37.490Z,30.72
2023-03-30T22:27:10.379Z,30.22
2023-03-30T22:29:40.797Z,30.00
2023-03-30T22:32:11.472Z,30.94
2023-03-30T22:34:42.528Z,29.73
2023-03-30T22:37:13.461Z,30.93
2023-03-30T22:39:44.249Z,30.22
2023-03-30T22:42:14.919Z,30.14
2023-03-30T22:44:45.482Z,31.14
2023-03-30T22:47:16.493Z,30.68
2023-03-30T22:49:47.098Z,29.75
2023-03-30T22:52:17.451Z,29.31
2023-03-30T22:54:48.724Z,29.41
2023-03-30T22:57:19.286Z,29.05
2023-03-30T22:59:49.526Z,29.04
2023-03-30T23:02:19.939Z,29.04
2023-03-30T23:04:54.340Z,29.48
2023-03-30T23:07:24.726Z,29.52
2023-03-30T23:09:55.528Z,29.56
2023-03-30T23:12:26.580Z,29.66
2023-03-30T23:14:56.997Z,29.73
2023-03-30T23:17:28.642Z,29.02
2023-03-30T23:19:59.755Z,29.73
2023-03-30T23:22:30.941Z,29.09
2023-03-30T23:25:01.381Z,29.18
2023-03-30T23:27:32.387Z,29.41
2023-03-30T23:30:02.917Z,29.17
2023-03-30T23:32:33.566Z,29.17
2023-03-30T23:35:05.403Z,29.06
2023-03-30T23:37:38.478Z,29.49
2023-03-30T23:40:10.845Z,28.78
2023-03-30T23:42:41.896Z,28.88
2023-03-30T23:45:13.013Z,29.25
2023-03-30T23:47:45.280Z,29.22
2023-03-30T23:50:16.940Z,28.85
2023-03-30T23:52:48.151Z,29.19
2023-03-30T23:55:19.981Z,29.21
2023-03-30T23:57:50.585Z,29.30
